Time;durP1;ratioP1;P1;durP2;ratioP2;P2;SDS_P1;SDS_P2;PMS_P1;PMS_P2;Temp;Humidity;BMP_temperature;BMP_pressure;BME280_temperature;BME280_humidity;BME280_pressure;Samples;Min_cycle;Max_cycle;Signal;HPM_P1;HPM_P2
2024/01/02 00:03:10;;;;;;;2.88;1.98;;;;;;;17.32;58.25;99848.81;10534440;28;20278;-47
2024/01/02 00:08:10;;;;;;;3.72;2.08;;;;;;;17.31;58.17;99834.63;10533240;28;20039;-48
2024/01/02 00:13:10;;;;;;;4.67;2.40;;;;;;;17.29;58.98;99820.75;10517075;28;20047;-50
2024/01/02 00:18:11;;;;;;;2.97;1.65;;;;;;;17.30;58.89;99792.06;10534964;28;20285;-49
2024/01/02 00:23:11;;;;;;;3.00;1.83;;;;;;;17.26;59.52;99786.50;10535067;28;20089;-47
2024/01/02 00:28:12;;;;;;;3.33;1.50;;;;;;;17.26;58.22;99767.75;10534476;28;20289;-50
2024/01/02 00:33:12;;;;;;;2.65;1.58;;;;;;;17.26;58.15;99746.31;10534425;28;20746;-49
2024/01/02 00:38:12;;;;;;;3.37;1.67;;;;;;;17.26;58.78;99724.91;10534295;28;20143;-49
2024/01/02 00:43:13;;;;;;;3.47;1.98;;;;;;;17.29;58.74;99700.19;10534237;28;20380;-50
2024/01/02 00:48:13;;;;;;;2.87;1.97;;;;;;;17.31;58.42;99679.22;10533584;28;20031;-50
2024/01/02 00:53:13;;;;;;;2.70;1.70;;;;;;;17.32;58.55;99663.94;10534103;28;20281;-48
2024/01/02 00:58:14;;;;;;;2.80;1.80;;;;;;;17.34;57.34;99646.44;10533215;28;20273;-48
2024/01/02 01:03:14;;;;;;;2.55;1.63;;;;;;;17.35;57.64;99623.13;10533459;28;20031;-49
2024/01/02 01:08:15;;;;;;;3.15;1.90;;;;;;;17.35;58.84;99618.53;10530174;28;20074;-49
2024/01/02 01:13:15;;;;;;;2.92;1.50;;;;;;;17.31;57.53;99592.69;10515674;28;20706;-51
2024/01/02 01:18:16;;;;;;;3.37;1.87;;;;;;;17.34;57.99;99576.00;10532906;28;20200;-46
2024/01/02 01:23:16;;;;;;;2.60;1.77;;;;;;;17.34;58.46;99562.59;10533154;28;20444;-48
2024/01/02 01:28:16;;;;;;;3.20;1.65;;;;;;;17.33;57.63;99539.59;10532488;28;20176;-47
2024/01/02 01:33:17;;;;;;;1.97;1.30;;;;;;;17.32;58.50;99516.59;10532876;28;20027;-48
2024/01/02 01:38:17;;;;;;;2.60;1.63;;;;;;;17.31;57.85;99498.94;10532503;28;20372;-48
2024/01/02 01:43:17;;;;;;;2.23;1.30;;;;;;;17.32;57.78;99469.16;10532749;28;20370;-47
2024/01/02 01:48:18;;;;;;;3.10;1.58;;;;;;;17.30;57.40;99455.28;10532380;28;20721;-48
2024/01/02 01:53:18;;;;;;;3.42;1.95;;;;;;;17.33;57.59;99435.09;10532501;28;20468;-50
2024/01/02 01:58:19;;;;;;;3.72;1.73;;;;;;;17.33;58.08;99419.81;10532310;28;20038;-49
2024/01/02 02:03:20;;;;;;;2.13;1.10;;;;;;;17.32;57.07;99390.66;10514456;28;20016;-48
2024/01/02 02:08:20;;;;;;;2.10;1.13;;;;;;;17.34;58.42;99370.47;10510338;28;20032;-47
2024/01/02 02:13:21;;;;;;;2.57;1.30;;;;;;;17.33;57.01;99350.16;10497668;28;20051;-49
2024/01/02 02:18:21;;;;;;;3.65;1.63;;;;;;;17.32;57.06;99331.72;10513833;28;20270;-47
2024/01/02 02:23:22;;;;;;;2.25;1.27;;;;;;;17.34;58.32;99313.44;10532364;28;20087;-48
2024/01/02 02:28:22;;;;;;;2.88;1.30;;;;;;;17.32;57.15;99292.31;10539328;28;20034;-47
2024/01/02 02:33:22;;;;;;;2.78;1.20;;;;;;;17.35;57.19;99294.34;10539343;28;20031;-49
2024/01/02 02:38:22;;;;;;;2.10;1.30;;;;;;;17.32;57.55;99283.50;10538785;28;20028;-51
2024/01/02 02:43:23;;;;;;;2.37;1.20;;;;;;;17.35;58.16;99269.47;10538991;28;20779;-48
2024/01/02 02:48:23;;;;;;;2.27;1.57;;;;;;;17.34;57.85;99251.81;10538239;28;20278;-49
2024/01/02 02:53:23;;;;;;;3.83;1.77;;;;;;;17.31;56.93;99221.09;10538530;28;20274;-48
2024/01/02 02:58:24;;;;;;;2.53;1.30;;;;;;;17.33;58.02;99197.44;10537881;28;20270;-49
2024/01/02 03:03:24;;;;;;;2.03;1.23;;;;;;;17.33;58.07;99170.66;10538145;28;20294;-48
2024/01/02 03:08:24;;;;;;;2.72;1.20;;;;;;;17.34;57.26;99156.16;10537363;28;20285;-48
2024/01/02 03:13:25;;;;;;;1.60;1.00;;;;;;;17.32;57.76;99146.88;10537529;28;20671;-51
2024/01/02 03:18:25;;;;;;;2.25;1.25;;;;;;;17.34;57.91;99113.28;10536943;28;20269;-48
2024/01/02 03:23:26;;;;;;;2.90;1.43;;;;;;;17.34;58.24;99107.16;10537297;28;20077;-50
2024/01/02 03:28:26;;;;;;;3.45;1.30;;;;;;;17.34;57.04;99097.22;10536915;28;20363;-48
2024/01/02 03:33:27;;;;;;;2.17;1.15;;;;;;;17.31;57.58;99075.66;10537073;28;20026;-50
2024/01/02 03:38:27;;;;;;;2.25;1.15;;;;;;;17.29;57.95;99049.19;10536133;28;20532;-48
2024/01/02 03:43:28;;;;;;;2.83;0.90;;;;;;;17.31;57.75;99008.69;10536335;28;20028;-48
2024/01/02 03:48:28;;;;;;;1.63;1.37;;;;;;;17.27;57.77;99000.50;10535596;28;20281;-50
2024/01/02 03:53:29;;;;;;;1.83;0.80;;;;;;;17.30;57.17;98988.38;10536193;28;20270;-50
2024/01/02 03:58:30;;;;;;;1.90;0.80;;;;;;;17.30;58.34;98961.59;10535646;28;20266;-51
2024/01/02 04:03:30;;;;;;;1.30;0.60;;;;;;;17.29;58.14;98982.22;10535614;28;20031;-48
2024/01/02 04:08:31;;;;;;;2.30;0.80;;;;;;;17.31;58.12;98992.63;10535009;28;20024;-48
2024/01/02 04:13:31;;;;;;;1.43;1.07;;;;;;;17.29;57.59;98955.44;10535018;28;20349;-52
2024/01/02 04:18:32;;;;;;;2.60;0.90;;;;;;;17.30;58.17;98945.50;10534607;28;20769;-52
2024/01/02 04:23:32;;;;;;;1.27;0.85;;;;;;;17.28;58.43;98919.03;10535121;28;20096;-48
2024/01/02 04:28:33;;;;;;;1.20;0.70;;;;;;;17.29;57.09;98925.97;10534260;28;20028;-49
2024/01/02 04:33:33;;;;;;;1.60;0.60;;;;;;;17.29;57.10;98917.94;10529095;28;20746;-45
2024/01/02 04:38:35;;;;;;;1.35;0.88;;;;;;;17.30;57.92;98916.03;10501457;28;20270;-47
2024/01/02 04:43:36;;;;;;;2.00;0.88;;;;;;;17.35;58.11;98915.81;10506615;28;20410;-51
2024/01/02 04:48:36;;;;;;;1.47;0.60;;;;;;;17.33;56.99;98900.09;10503543;28;20029;-47
2024/01/02 04:53:36;;;;;;;1.60;0.83;;;;;;;17.39;58.41;98893.38;10504727;28;20281;-47
2024/01/02 04:58:37;;;;;;;1.35;0.60;;;;;;;17.38;56.87;98886.47;10504545;28;20282;-48
2024/01/02 05:03:37;;;;;;;2.10;0.70;;;;;;;17.36;57.32;98894.06;10510955;28;20032;-48
2024/01/02 05:08:37;;;;;;;4.43;0.90;;;;;;;17.41;58.78;98891.19;10529671;28;20278;-47
2024/01/02 05:13:38;;;;;;;1.92;0.77;;;;;;;17.36;57.44;98895.97;10519562;28;20601;-50
2024/01/02 05:18:38;;;;;;;1.02;0.50;;;;;;;17.38;57.58;98883.78;10531081;28;20054;-48
2024/01/02 05:23:38;;;;;;;1.93;0.50;;;;;;;17.34;57.74;98869.50;10530038;28;20507;-50
2024/01/02 05:28:39;;;;;;;1.20;0.50;;;;;;;17.37;57.19;98868.84;10531654;28;20277;-48
2024/01/02 05:33:39;;;;;;;0.70;0.40;;;;;;;17.38;57.51;98864.25;10514908;28;20277;-48
2024/01/02 05:38:39;;;;;;;1.00;0.50;;;;;;;17.37;56.78;98868.06;10532809;28;20270;-47
2024/01/02 05:43:40;;;;;;;2.20;0.60;;;;;;;17.37;57.42;98868.06;10532535;28;20286;-47
2024/01/02 05:48:40;;;;;;;2.83;0.73;;;;;;;17.35;57.06;98870.28;10532324;28;20274;-49
2024/01/02 05:53:40;;;;;;;1.15;0.50;;;;;;;17.36;58.49;98878.00;10532664;28;20270;-48
2024/01/02 05:58:41;;;;;;;10.97;0.97;;;;;;;17.36;58.44;98863.81;10535070;28;20043;-47
2024/01/02 06:03:41;;;;;;;1.07;0.67;;;;;;;17.37;57.10;98862.69;10540666;28;20359;-51
2024/01/02 06:08:41;;;;;;;1.10;0.60;;;;;;;17.36;57.81;98863.81;10533409;28;20343;-51
2024/01/02 06:13:42;;;;;;;1.33;0.40;;;;;;;17.36;57.74;98885.25;10516626;28;20744;-50
2024/01/02 06:18:42;;;;;;;0.60;0.40;;;;;;;17.36;56.95;98887.91;10539828;28;20031;-47
2024/01/02 06:23:43;;;;;;;0.60;0.30;;;;;;;17.35;57.30;98895.19;10539685;28;20027;-50
2024/01/02 06:28:43;;;;;;;0.55;0.38;;;;;;;17.38;56.92;98893.72;10539382;28;20265;-48
2024/01/02 06:33:44;;;;;;;0.80;0.40;;;;;;;17.36;57.94;98902.09;10521262;28;20448;-50
2024/01/02 06:38:44;;;;;;;2.13;0.40;;;;;;;17.45;57.55;98918.88;10538188;28;20689;-47
2024/01/02 06:43:45;;;;;;;3.38;0.82;;;;;;;17.49;57.93;98909.03;10519858;28;20035;-47
2024/01/02 06:48:45;;;;;;;1.97;0.50;;;;;;;17.53;59.28;98941.34;10538263;28;20042;-49
2024/01/02 06:53:45;;;;;;;9.30;0.80;;;;;;;17.52;58.93;98939.75;10538650;28;20262;-47
2024/01/02 06:58:46;;;;;;;6.10;0.80;;;;;;;17.47;58.86;98948.00;10538081;28;20035;-49
2024/01/02 07:03:47;;;;;;;8.65;1.52;;;;;;;17.42;59.80;98951.69;10538038;28;20282;-49
2024/01/02 07:08:47;;;;;;;7.25;1.30;;;;;;;17.35;59.69;98943.41;10536361;28;20047;-48
2024/01/02 07:13:47;;;;;;;8.35;1.50;;;;;;;17.45;60.86;98951.03;10537758;28;20020;-48
2024/01/02 07:18:48;;;;;;;16.83;1.60;;;;;;;17.39;59.66;98957.69;10537473;28;20038;-46
2024/01/02 07:23:48;;;;;;;5.33;1.70;;;;;;;17.33;60.96;98960.91;10537629;28;20804;-46
2024/01/02 07:28:48;;;;;;;5.40;1.10;;;;;;;17.29;60.73;98976.88;10527374;28;20262;-47
2024/01/02 07:33:49;;;;;;;10.63;2.10;;;;;;;17.29;60.17;98989.50;10530844;28;20028;-47
2024/01/02 07:38:49;;;;;;;7.40;1.63;;;;;;;17.34;60.69;98994.63;10536057;28;20303;-50
2024/01/02 07:43:49;;;;;;;11.63;1.90;;;;;;;17.31;61.76;98996.06;10533622;28;20301;-47
2024/01/02 07:48:50;;;;;;;7.27;1.67;;;;;;;17.34;60.48;99021.41;10533536;28;20463;-45
2024/01/02 07:53:50;;;;;;;13.73;2.83;;;;;;;17.33;60.31;99025.22;10535849;28;20270;-48
2024/01/02 07:58:50;;;;;;;8.87;1.60;;;;;;;17.34;61.35;99054.34;10536058;28;20278;-47
2024/01/02 08:03:51;;;;;;;7.63;1.57;;;;;;;17.30;60.44;99028.56;10535394;28;20285;-48
2024/01/02 08:08:51;;;;;;;16.20;4.43;;;;;;;17.29;60.76;99029.66;10525692;28;20318;-48
2024/01/02 08:13:52;;;;;;;8.02;1.98;;;;;;;17.27;62.58;99045.25;10522105;28;20023;-49
2024/01/02 08:18:52;;;;;;;8.80;2.20;;;;;;;17.25;61.15;99032.19;10534935;28;20035;-51
2024/01/02 08:23:52;;;;;;;14.27;1.47;;;;;;;17.23;60.89;99037.88;10533823;28;20116;-50
2024/01/02 08:28:53;;;;;;;7.57;1.70;;;;;;;17.20;61.17;99035.09;10534876;28;20787;-52
2024/01/02 08:33:53;;;;;;;5.25;1.88;;;;;;;17.20;60.87;99029.72;10534486;28;20032;-49
2024/01/02 08:38:54;;;;;;;13.50;2.00;;;;;;;17.18;62.04;99027.38;10534611;28;20024;-50
2024/01/02 08:43:54;;;;;;;8.40;1.33;;;;;;;17.20;61.06;99029.72;10533910;28;20107;-48
2024/01/02 08:48:54;;;;;;;7.47;2.13;;;;;;;17.22;62.44;99036.31;10533476;28;20362;-46
2024/01/02 08:53:55;;;;;;;8.33;2.30;;;;;;;17.21;61.70;99037.44;10532754;28;20277;-47
2024/01/02 08:58:56;;;;;;;8.60;1.80;;;;;;;17.20;61.88;99040.44;10533241;28;20300;-48
2024/01/02 09:03:56;;;;;;;8.43;2.03;;;;;;;17.21;63.02;99039.31;10533163;28;20278;-48
2024/01/02 09:08:57;;;;;;;11.82;1.25;;;;;;;17.06;62.46;99029.22;10530570;28;20036;-50
2024/01/02 09:13:57;;;;;;;2.78;1.17;;;;;;;17.00;61.58;99025.91;10503160;28;20024;-49
2024/01/02 09:18:58;;;;;;;5.22;0.98;;;;;;;16.95;60.73;99012.75;10533191;28;20467;-48
2024/01/02 09:23:58;;;;;;;16.10;2.88;;;;;;;16.96;60.68;99016.97;10532795;28;20463;-49
2024/01/02 09:28:58;;;;;;;8.87;1.63;;;;;;;17.03;60.57;99029.84;10533395;28;20020;-46
2024/01/02 09:33:59;;;;;;;8.90;1.93;;;;;;;17.17;61.12;99023.13;10517926;28;20281;-48
2024/01/02 09:38:59;;;;;;;15.68;2.60;;;;;;;17.22;60.14;99024.81;10541807;28;20270;-50
2024/01/02 09:44:14;;;;;;;10.95;1.50;;;;;;;17.25;59.53;99016.13;10540901;28;20115;-48
2024/01/02 09:49:17;;;;;;;14.85;1.92;;;;;;;17.23;60.94;99004.97;10523206;28;20020;-47
2024/01/02 09:54:20;;;;;;;14.05;1.83;;;;;;;17.32;61.57;99010.25;10540333;28;20105;-50
2024/01/02 09:59:43;;;;;;;16.02;1.80;;;;;;;17.35;60.32;99010.38;10540678;28;20109;-50
2024/01/02 10:05:11;;;;;;;14.18;2.50;;;;;;;17.31;60.31;99006.00;10524869;28;20039;-50
2024/01/02 10:10:21;;;;;;;12.70;3.00;;;;;;;17.22;60.53;99009.53;10534076;28;20043;-48
2024/01/02 10:15:27;;;;;;;;;;;;;;;17.26;61.97;99001.63;10536905;28;20028;-48
2024/01/02 10:20:46;;;;;;;18.63;4.95;;;;;;;17.17;61.23;98988.31;10521837;28;20351;-47
2024/01/02 10:25:53;;;;;;;20.33;4.15;;;;;;;17.11;60.87;98988.81;10538939;28;20059;-48
2024/01/02 10:31:21;;;;;;;29.83;4.57;;;;;;;17.12;62.51;98977.78;10529201;28;20371;-45
2024/01/02 10:36:22;;;;;;;31.80;5.32;;;;;;;17.08;62.04;98982.25;10508101;28;20024;-46
2024/01/02 10:41:25;;;;;;;18.85;4.07;;;;;;;17.13;61.22;98974.00;10521602;28;20110;-47
2024/01/02 10:46:48;;;;;;;29.30;5.65;;;;;;;17.10;60.83;98977.34;10525111;28;20035;-46
2024/01/02 10:52:03;;;;;;;15.45;3.72;;;;;;;17.12;61.76;98959.03;10508893;28;20059;-46
2024/01/02 10:57:09;;;;;;;17.13;3.40;;;;;;;17.11;61.93;98937.94;10508216;28;20028;-47
2024/01/02 11:02:33;;;;;;;17.75;3.33;;;;;;;17.05;61.91;98940.06;10501683;28;20589;-48
2024/01/02 11:07:35;;;;;;;18.75;3.92;;;;;;;17.11;62.36;98928.03;10536631;28;20056;-46
2024/01/02 11:13:03;;;;;;;24.15;3.63;;;;;;;17.20;61.26;98922.59;10498859;28;20054;-46
2024/01/02 11:18:04;;;;;;;19.17;3.03;;;;;;;17.23;61.46;98912.00;10526974;28;20044;-45
2024/01/02 11:23:11;;;;;;;27.45;4.18;;;;;;;17.28;61.53;98912.88;10488604;28;20666;-45
2024/01/02 11:28:12;;;;;;;22.83;4.13;;;;;;;17.33;63.40;98897.41;10519310;28;20055;-46
2024/01/02 11:33:24;;;;;;;17.25;3.40;;;;;;;17.36;62.18;98896.75;10518609;28;20051;-45
2024/01/02 11:38:27;;;;;;;10.82;2.42;;;;;;;17.38;62.22;98885.69;10518967;28;20030;-47
2024/01/02 11:43:34;;;;;;;20.63;4.18;;;;;;;17.29;63.16;98863.59;10536312;28;20654;-47
2024/01/02 11:49:00;;;;;;;13.13;3.05;;;;;;;17.29;62.65;98866.28;10535596;28;20038;-46
2024/01/02 11:54:39;;;;;;;9.30;3.38;;;;;;;17.26;63.14;98848.94;10534021;28;20024;-45
2024/01/02 12:00:03;;;;;;;37.47;4.40;;;;;;;17.24;62.95;98829.75;10306619;28;20031;-47
2024/01/02 12:05:18;;;;;;;20.60;2.30;;;;;;;17.19;63.84;98846.03;10322833;28;20521;-48
2024/01/02 12:10:19;;;;;;;15.68;3.22;;;;;;;17.16;62.79;98834.06;10322646;28;20050;-47
2024/01/02 12:15:45;;;;;;;20.05;3.17;;;;;;;17.20;62.82;98816.25;10323141;28;20038;-47
2024/01/02 12:20:50;;;;;;;15.23;2.95;;;;;;;17.16;63.61;98803.84;10322477;28;20085;-47
2024/01/02 12:25:57;;;;;;;10.40;2.30;;;;;;;17.09;62.77;98793.69;10320085;28;20046;-49
2024/01/02 12:31:04;;;;;;;10.73;2.40;;;;;;;17.03;61.94;98783.50;10312719;28;20402;-49
2024/01/02 12:36:34;;;;;;;9.43;1.95;;;;;;;17.02;63.13;98769.34;10481414;28;20036;-47
2024/01/02 12:41:44;;;;;;;12.80;2.72;;;;;;;17.06;62.84;98761.44;10528322;28;20099;-48
2024/01/02 12:47:02;;;;;;;9.35;2.22;;;;;;;17.05;63.05;98743.78;10532937;28;20112;-48
2024/01/02 12:52:04;;;;;;;10.02;2.15;;;;;;;17.04;62.09;98731.50;10515778;28;20020;-47
2024/01/02 12:57:06;;;;;;;12.50;2.05;;;;;;;17.02;62.85;98715.78;10532679;28;20035;-49
2024/01/02 13:02:06;;;;;;;13.43;3.42;;;;;;;17.05;61.98;98701.75;10530749;28;20086;-46
2024/01/02 13:07:08;;;;;;;11.82;3.35;;;;;;;17.06;62.29;98683.78;10532124;28;20028;-49
2024/01/02 13:12:12;;;;;;;18.20;3.63;;;;;;;17.12;62.51;98666.38;10498473;28;20680;-48
2024/01/02 13:17:13;;;;;;;18.10;3.67;;;;;;;17.17;62.23;98656.22;10532979;28;20036;-47
2024/01/02 13:22:24;;;;;;;22.98;3.30;;;;;;;17.23;62.04;98646.06;10507413;28;20463;-48
2024/01/02 13:27:28;;;;;;;31.65;4.13;;;;;;;17.19;63.96;98621.09;10524108;28;20028;-47
2024/01/02 13:32:28;;;;;;;30.42;4.43;;;;;;;17.16;63.82;98611.03;10533001;28;20070;-46
2024/01/02 13:37:29;;;;;;;22.80;3.30;;;;;;;17.14;63.77;98589.16;10532315;28;20138;-48
2024/01/02 13:42:31;;;;;;;25.73;3.83;;;;;;;17.15;63.19;98588.81;10532736;28;20293;-47
2024/01/02 13:47:33;;;;;;;24.85;4.32;;;;;;;17.14;63.45;98573.09;10532355;28;20027;-48
2024/01/02 13:52:34;;;;;;;30.00;3.92;;;;;;;17.11;63.11;98552.34;10532198;28;20028;-46
2024/01/02 13:57:35;;;;;;;51.88;9.35;;;;;;;17.06;65.70;98544.56;10531279;28;20634;-48
2024/01/02 14:02:36;;;;;;;28.95;4.53;;;;;;;17.09;64.39;98541.97;10530335;28;20020;-49
2024/01/02 14:07:41;;;;;;;28.70;5.25;;;;;;;17.07;65.14;98536.19;10530353;28;20012;-46
2024/01/02 14:12:44;;;;;;;42.60;7.05;;;;;;;17.05;66.04;98518.88;10515860;28;20664;-45
2024/01/02 14:17:46;;;;;;;55.00;9.90;;;;;;;17.04;65.63;98498.59;10529911;28;20024;-47
2024/01/02 14:23:14;;;;;;;33.35;5.68;;;;;;;17.04;65.42;98495.91;10536363;28;20032;-46
2024/01/02 14:28:22;;;;;;;35.50;5.88;;;;;;;17.08;64.43;98483.41;10536705;28;20039;-48
2024/01/02 14:33:43;;;;;;;36.88;5.68;;;;;;;17.06;64.70;98472.28;10537370;28;20032;-47
2024/01/02 14:39:03;;;;;;;35.58;6.13;;;;;;;17.03;63.95;98460.31;10536402;28;20030;-45
2024/01/02 14:44:21;;;;;;;44.72;6.13;;;;;;;17.15;65.67;98443.44;10531216;28;20077;-47
2024/01/02 14:49:40;;;;;;;30.38;5.75;;;;;;;17.20;65.62;98440.53;10537104;28;20724;-48
2024/01/02 14:54:55;;;;;;;25.67;4.38;;;;;;;17.28;65.33;98431.56;10519396;28;20490;-51
2024/01/02 15:00:08;;;;;;;23.52;5.13;;;;;;;17.27;64.52;98419.28;10510589;28;20024;-45
2024/01/02 15:05:33;;;;;;;26.17;4.22;;;;;;;17.26;64.62;98412.38;10513319;28;20085;-47
2024/01/02 15:10:41;;;;;;;27.52;6.55;;;;;;;17.25;64.29;98395.53;10490163;28;20047;-47
2024/01/02 15:16:02;;;;;;;16.38;3.00;;;;;;;17.17;64.61;98391.13;10483418;28;20069;-50
2024/01/02 15:21:21;;;;;;;21.77;3.92;;;;;;;17.14;64.35;98372.25;10530691;28;20116;-48
2024/01/02 15:26:28;;;;;;;18.63;3.20;;;;;;;17.17;65.41;98361.66;10487823;28;20031;-46
2024/01/02 15:31:29;;;;;;;12.00;3.83;;;;;;;17.13;64.26;98347.38;10492724;28;20024;-46
2024/01/02 15:36:56;;;;;;;25.30;3.65;;;;;;;17.12;65.62;98339.69;10478504;28;20556;-49
2024/01/02 15:41:58;;;;;;;23.80;3.88;;;;;;;17.09;65.56;98319.75;10479590;28;20055;-48
2024/01/02 15:47:18;;;;;;;18.10;3.95;;;;;;;17.15;65.39;98298.84;10487549;28;20020;-48
2024/01/02 15:52:21;;;;;;;17.83;3.33;;;;;;;17.14;64.18;98281.22;10498571;28;20035;-48
2024/01/02 15:57:23;;;;;;;14.65;3.30;;;;;;;17.16;64.80;98270.94;10515321;28;20012;-46
2024/01/02 16:02:44;;;;;;;15.55;2.53;;;;;;;17.12;63.65;98244.09;10525778;28;20032;-47
2024/01/02 16:07:50;;;;;;;17.30;3.22;;;;;;;17.16;63.59;98218.16;10522000;28;20518;-48
2024/01/02 16:13:19;;;;;;;18.77;4.57;;;;;;;17.12;64.76;98211.97;10481926;28;20040;-48
2024/01/02 16:18:36;;;;;;;13.18;2.47;;;;;;;17.12;63.85;98195.91;10491547;28;20503;-47
2024/01/02 16:24:03;;;;;;;16.92;3.17;;;;;;;17.25;64.79;98185.88;10486763;28;20051;-48
2024/01/02 16:29:36;;;;;;;13.63;2.92;;;;;;;17.29;65.63;98173.34;10489087;28;20035;-52
2024/01/02 16:35:05;;;;;;;26.95;3.15;;;;;;;17.34;64.91;98162.34;10322045;28;20604;-50
2024/01/02 16:40:14;;;;;;;15.75;3.85;;;;;;;17.29;64.93;98156.50;10305559;28;20058;-45
2024/01/02 16:45:16;;;;;;;40.72;7.90;;;;;;;17.32;64.72;98145.09;10288588;28;20049;-52
2024/01/02 16:50:20;;;;;;;38.30;7.75;;;;;;;17.38;63.75;98128.38;10307742;28;20185;-45
2024/01/02 16:55:21;;;;;;;25.50;5.20;;;;;;;17.42;62.34;98126.56;10321610;28;20046;-48
2024/01/02 17:00:22;;;;;;;12.63;4.35;;;;;;;17.67;64.82;98121.72;10304936;28;20045;-49
2024/01/02 17:05:32;;;;;;;17.02;5.28;;;;;;;17.85;66.76;98105.25;10305128;28;20034;-49
2024/01/02 17:10:33;;;;;;;13.75;4.07;;;;;;;17.85;65.98;98118.66;10470485;28;20048;-49
2024/01/02 17:15:34;;;;;;;12.30;4.47;;;;;;;17.73;66.51;98096.22;10499542;28;20077;-48
2024/01/02 17:20:35;;;;;;;15.15;3.67;;;;;;;17.72;65.04;98083.19;10486653;28;20177;-48
2024/01/02 17:25:36;;;;;;;12.88;3.10;;;;;;;17.74;64.48;98072.88;10492229;28;20526;-49
2024/01/02 17:30:36;;;;;;;10.38;3.85;;;;;;;17.75;64.63;98056.44;10496486;28;20024;-49
2024/01/02 17:35:37;;;;;;;17.83;4.50;;;;;;;17.63;65.19;98063.81;10511574;28;20032;-49
2024/01/02 17:40:47;;;;;;;17.55;3.67;;;;;;;17.59;64.03;98041.53;10498453;28;20028;-47
2024/01/02 17:45:49;;;;;;;32.55;5.22;;;;;;;17.53;65.02;98055.25;10505919;28;20024;-49
2024/01/02 17:50:59;;;;;;;21.52;5.70;;;;;;;17.46;65.14;98046.28;10495431;28;20443;-46
2024/01/02 17:56:11;;;;;;;19.45;3.50;;;;;;;17.41;65.56;98062.63;10519761;28;20051;-47
2024/01/02 18:01:20;;;;;;;13.48;3.90;;;;;;;17.36;65.44;98058.31;10503499;28;20051;-46
2024/01/02 18:06:34;;;;;;;12.73;4.22;;;;;;;17.32;66.20;98037.97;10509675;28;20021;-49
2024/01/02 18:12:13;;;;;;;12.63;3.78;;;;;;;17.27;66.19;98032.88;10509657;28;20052;-47
2024/01/02 18:17:45;;;;;;;11.13;3.65;;;;;;;17.24;65.68;98016.38;10515039;28;20016;-49
2024/01/02 18:22:48;;;;;;;12.40;3.38;;;;;;;17.21;64.84;98014.41;10326206;28;20304;-48
2024/01/02 18:27:55;;;;;;;12.45;3.65;;;;;;;17.16;64.72;98009.31;10323368;28;20046;-50
2024/01/02 18:33:17;;;;;;;12.75;3.35;;;;;;;17.14;64.96;98018.84;10322363;28;20478;-47
2024/01/02 18:38:31;;;;;;;7.72;3.42;;;;;;;17.10;64.39;98002.69;10309422;28;20042;-48
2024/01/02 18:43:40;;;;;;;10.43;2.42;;;;;;;17.08;63.88;98010.31;10300044;28;20125;-48
2024/01/02 18:48:43;;;;;;;7.30;2.72;;;;;;;17.11;64.60;98020.31;10297762;28;20076;-47
2024/01/02 18:53:57;;;;;;;8.05;2.50;;;;;;;17.10;64.49;98004.59;10303935;28;20042;-47
2024/01/02 18:58:58;;;;;;;5.53;1.58;;;;;;;17.11;64.75;98033.69;10460082;28;20494;-46
2024/01/02 19:04:11;;;;;;;8.90;2.00;;;;;;;17.12;64.70;98050.53;10519977;28;20039;-48
2024/01/02 19:09:14;;;;;;;12.98;2.88;;;;;;;17.16;65.13;98067.44;10534032;28;20063;-51
2024/01/02 19:14:14;;;;;;;13.30;2.63;;;;;;;17.16;63.89;98052.16;10536148;28;20031;-51
2024/01/02 19:19:16;;;;;;;4.27;1.70;;;;;;;17.17;64.30;98053.72;10532501;28;20055;-48
2024/01/02 19:24:18;;;;;;;8.05;2.22;;;;;;;17.16;64.56;98054.84;10530710;28;20298;-47
2024/01/02 19:29:18;;;;;;;9.70;2.75;;;;;;;17.17;64.73;98072.47;10536484;28;20376;-48
2024/01/02 19:34:19;;;;;;;7.13;1.73;;;;;;;17.27;63.87;98044.34;10536809;28;20021;-48
2024/01/02 19:39:25;;;;;;;8.50;2.97;;;;;;;17.25;64.76;98049.28;10518038;28;20270;-46
2024/01/02 19:44:25;;;;;;;7.45;1.98;;;;;;;17.29;64.45;98044.81;10536319;28;20369;-46
2024/01/02 19:49:26;;;;;;;6.72;1.70;;;;;;;17.34;65.32;98065.94;10535560;28;20023;-50
2024/01/02 19:54:26;;;;;;;6.65;1.80;;;;;;;17.35;64.61;98056.78;10535930;28;20107;-47
2024/01/02 19:59:26;;;;;;;7.57;1.40;;;;;;;17.35;64.86;98083.56;10533790;28;20452;-46
2024/01/02 20:04:35;;;;;;;6.10;1.43;;;;;;;17.34;64.62;98055.22;10535060;28;20286;-47
2024/01/02 20:09:41;;;;;;;4.73;1.37;;;;;;;17.32;65.10;98068.19;10534729;28;20297;-46
2024/01/02 20:14:48;;;;;;;8.70;2.25;;;;;;;17.35;63.79;98082.78;10534606;28;20264;-46
2024/01/02 20:19:52;;;;;;;6.65;1.38;;;;;;;17.35;64.82;98077.41;10499840;28;20357;-50
2024/01/02 20:24:55;;;;;;;5.07;1.67;;;;;;;17.32;63.67;98059.38;10508874;28;20059;-47
2024/01/02 20:29:57;;;;;;;6.35;1.70;;;;;;;17.29;64.20;98058.19;10528370;28;20043;-49
2024/01/02 20:35:01;;;;;;;6.50;1.10;;;;;;;17.28;63.22;98066.53;10533925;28;20040;-50
2024/01/02 20:40:27;;;;;;;4.75;1.65;;;;;;;17.22;63.93;98090.94;10496286;28;20914;-47
2024/01/02 20:45:27;;;;;;;2.00;0.90;;;;;;;17.25;62.94;98092.91;10530133;28;20022;-49
2024/01/02 20:50:29;;;;;;;3.38;1.58;;;;;;;17.27;64.19;98068.44;10510205;28;20024;-47
2024/01/02 20:55:32;;;;;;;5.15;1.00;;;;;;;17.25;62.71;98068.81;10491747;28;20123;-47
2024/01/02 21:00:33;;;;;;;3.97;0.88;;;;;;;17.26;63.32;98069.59;10507949;28;20077;-47
2024/01/02 21:05:55;;;;;;;3.08;1.38;;;;;;;17.30;63.09;98069.69;10506256;28;20364;-50
2024/01/02 21:11:02;;;;;;;2.78;1.02;;;;;;;17.29;63.81;98047.47;10485478;28;20051;-47
2024/01/02 21:16:07;;;;;;;3.20;0.80;;;;;;;17.32;62.36;98068.19;10470654;28;20396;-49
2024/01/02 21:21:22;;;;;;;2.65;1.25;;;;;;;17.33;62.49;98067.06;10490886;28;20036;-47
2024/01/02 21:26:22;;;;;;;4.70;1.58;;;;;;;17.33;62.35;98085.03;10477006;28;20033;-46
2024/01/02 21:31:24;;;;;;;2.05;0.75;;;;;;;17.28;62.28;98061.97;10499737;28;20086;-50
2024/01/02 21:36:26;;;;;;;3.50;0.90;;;;;;;17.32;62.38;98076.22;10504453;28;20020;-51
2024/01/02 21:41:27;;;;;;;3.72;1.13;;;;;;;17.34;62.60;98059.81;10486152;28;20035;-47
2024/01/02 21:46:28;;;;;;;3.37;1.03;;;;;;;17.36;62.68;98092.38;10479999;28;20033;-46
2024/01/02 21:51:29;;;;;;;2.58;1.00;;;;;;;17.40;61.58;98115.41;10504089;28;20282;-46
2024/01/02 21:56:33;;;;;;;2.42;1.05;;;;;;;17.39;61.15;98097.78;10504457;28;20017;-46
2024/01/02 22:01:34;;;;;;;3.90;1.00;;;;;;;17.44;61.24;98126.22;10503629;28;20032;-48
2024/01/02 22:06:42;;;;;;;3.13;0.80;;;;;;;17.47;62.24;98130.88;10504007;28;20021;-47
2024/01/02 22:11:50;;;;;;;2.17;0.90;;;;;;;17.42;60.91;98125.78;10531122;28;20439;-46
2024/01/02 22:16:50;;;;;;;5.50;1.15;;;;;;;17.42;62.24;98152.59;10545922;28;20384;-46
2024/01/02 22:22:06;;;;;;;3.47;1.30;;;;;;;17.42;62.50;98148.00;10545079;28;20036;-47
2024/01/02 22:27:09;;;;;;;3.58;0.90;;;;;;;17.40;61.58;98149.44;10545368;28;20024;-50
2024/01/02 22:32:12;;;;;;;3.15;0.70;;;;;;;17.41;60.67;98159.84;10544982;28;20059;-47
2024/01/02 22:37:20;;;;;;;3.85;0.88;;;;;;;17.44;62.27;98169.09;10545456;28;20024;-49
2024/01/02 22:42:23;;;;;;;4.22;0.70;;;;;;;17.40;60.60;98160.94;10539243;28;20463;-49
2024/01/02 22:47:23;;;;;;;2.60;0.68;;;;;;;17.36;61.03;98172.72;10538854;28;20039;-49
2024/01/02 22:52:23;;;;;;;6.03;1.00;;;;;;;17.37;61.24;98193.78;10538017;28;20031;-47
2024/01/02 22:57:24;;;;;;;2.27;0.90;;;;;;;17.36;61.65;98197.59;10520005;28;20024;-48
2024/01/02 23:02:25;;;;;;;2.38;0.80;;;;;;;17.36;60.58;98194.16;10537573;28;20938;-47
2024/01/02 23:07:55;;;;;;;1.88;0.63;;;;;;;17.36;61.86;98192.25;10538036;28;20020;-48
2024/01/02 23:12:56;;;;;;;3.38;1.40;;;;;;;17.44;61.48;98201.22;10519154;28;20075;-46
2024/01/02 23:17:56;;;;;;;4.13;0.60;;;;;;;17.44;60.48;98222.66;10519431;28;20467;-46
2024/01/02 23:23:03;;;;;;;3.65;0.68;;;;;;;17.39;60.37;98221.00;10500678;28;20024;-49
2024/01/02 23:28:05;;;;;;;4.43;1.00;;;;;;;17.41;60.81;98226.03;10518861;28;20024;-47
2024/01/02 23:33:05;;;;;;;2.17;0.82;;;;;;;17.42;61.69;98249.78;10536515;28;20027;-48